createdAt,value
2018-08-12T00:00:35.346Z,23.81
2018-08-12T00:01:35.604Z,23.82
2018-08-12T00:02:35.290Z,23.79
2018-08-12T00:03:35.343Z,23.81
2018-08-12T00:04:35.389Z,23.81
2018-08-12T00:05:35.562Z,23.81
2018-08-12T00:06:35.513Z,23.81
2018-08-12T00:07:35.367Z,23.82
2018-08-12T00:08:35.481Z,23.8
2018-08-12T00:09:35.457Z,23.79
2018-08-12T00:10:35.423Z,23.81
2018-08-12T00:11:35.539Z,23.81
2018-08-12T00:12:35.450Z,23.77
2018-08-12T00:13:35.397Z,23.79
2018-08-12T00:14:35.369Z,23.8
2018-08-12T00:15:35.473Z,23.81
2018-08-12T00:16:35.400Z,23.8
2018-08-12T00:17:35.301Z,23.8
2018-08-12T00:18:35.570Z,23.81
2018-08-12T00:19:35.391Z,23.81
2018-08-12T00:20:35.560Z,23.8
2018-08-12T00:21:35.756Z,23.81
2018-08-12T00:22:35.459Z,23.79
2018-08-12T00:23:35.322Z,23.79
2018-08-12T00:24:35.485Z,23.79
2018-08-12T00:25:35.294Z,23.8
2018-08-12T00:26:35.386Z,23.8
2018-08-12T00:27:35.431Z,23.79
2018-08-12T00:28:35.489Z,23.8
2018-08-12T00:29:35.591Z,23.81
2018-08-12T00:30:35.671Z,23.79
2018-08-12T00:31:35.484Z,23.8
2018-08-12T00:32:35.397Z,23.79
2018-08-12T00:33:35.471Z,23.79
2018-08-12T00:34:35.437Z,23.76
2018-08-12T00:35:35.697Z,23.77
2018-08-12T00:36:35.695Z,23.76
2018-08-12T00:37:35.464Z,23.76
2018-08-12T00:38:35.502Z,23.8
2018-08-12T00:39:35.406Z,23.75
2018-08-12T00:40:35.418Z,23.79
2018-08-12T00:41:35.328Z,23.76
2018-08-12T00:42:35.684Z,23.77
2018-08-12T00:43:35.502Z,23.75
2018-08-12T00:44:35.553Z,23.76
2018-08-12T00:45:35.400Z,23.76
2018-08-12T00:46:35.465Z,23.76
2018-08-12T00:47:35.594Z,23.77
2018-08-12T00:48:35.721Z,23.79
2018-08-12T00:49:35.405Z,23.77
2018-08-12T00:50:35.349Z,23.76
2018-08-12T00:51:35.406Z,23.75
2018-08-12T00:52:35.500Z,23.76
2018-08-12T00:53:35.515Z,23.77
2018-08-12T00:54:35.484Z,23.75
2018-08-12T00:55:35.289Z,23.79
2018-08-12T00:56:35.457Z,23.75
2018-08-12T00:57:35.506Z,23.77
2018-08-12T00:58:35.320Z,23.77
2018-08-12T00:59:35.246Z,23.76
2018-08-12T01:00:35.918Z,23.76
2018-08-12T01:01:35.581Z,23.75
2018-08-12T01:02:35.437Z,23.76
2018-08-12T01:03:35.342Z,23.75
2018-08-12T01:04:35.451Z,23.77
2018-08-12T01:05:35.299Z,23.75
2018-08-12T01:06:35.440Z,23.77
2018-08-12T01:07:35.430Z,23.75
2018-08-12T01:08:35.429Z,23.75
2018-08-12T01:09:35.498Z,23.75
2018-08-12T01:10:35.414Z,23.75
2018-08-12T01:11:35.747Z,23.77
2018-08-12T01:12:35.251Z,23.75
2018-08-12T01:13:35.651Z,23.72
2018-08-12T01:14:35.573Z,23.73
2018-08-12T01:15:35.789Z,23.73
2018-08-12T01:16:35.524Z,23.76
2018-08-12T01:17:35.308Z,23.71
2018-08-12T01:18:35.443Z,23.73
2018-08-12T01:19:35.501Z,23.72
2018-08-12T01:20:35.408Z,23.73
2018-08-12T01:21:35.445Z,23.73
2018-08-12T01:22:35.555Z,23.73
2018-08-12T01:23:35.590Z,23.72
2018-08-12T01:24:35.416Z,23.72
2018-08-12T01:25:35.372Z,23.73
2018-08-12T01:26:35.305Z,23.72
2018-08-12T01:27:35.367Z,23.72
2018-08-12T01:28:35.359Z,23.73
2018-08-12T01:29:35.449Z,23.72
2018-08-12T01:30:35.393Z,23.72
2018-08-12T01:31:35.358Z,23.75
2018-08-12T01:32:35.579Z,23.73
2018-08-12T01:33:35.449Z,23.72
2018-08-12T01:34:35.510Z,23.74
2018-08-12T01:35:35.283Z,23.75
2018-08-12T01:36:35.357Z,23.72
2018-08-12T01:37:35.409Z,23.72
2018-08-12T01:38:35.749Z,23.73
2018-08-12T01:39:35.390Z,23.72
2018-08-12T01:40:35.428Z,23.75
2018-08-12T01:41:35.775Z,23.74
2018-08-12T01:42:35.399Z,23.72
2018-08-12T01:43:35.382Z,23.73
2018-08-12T01:44:35.262Z,23.74
2018-08-12T01:45:35.651Z,23.74
2018-08-12T01:46:35.799Z,23.73
2018-08-12T01:47:35.462Z,23.73
2018-08-12T01:48:35.797Z,23.73
2018-08-12T01:49:35.642Z,23.72
2018-08-12T01:50:35.568Z,23.73
2018-08-12T01:51:35.907Z,23.73
2018-08-12T01:52:35.394Z,23.73
2018-08-12T01:53:35.577Z,23.72
2018-08-12T01:54:35.364Z,23.73
2018-08-12T01:55:35.337Z,23.72
2018-08-12T01:56:35.613Z,23.71
2018-08-12T01:57:35.464Z,23.72
2018-08-12T01:58:35.578Z,23.72
2018-08-12T01:59:35.364Z,23.72
2018-08-12T02:00:35.401Z,23.72
2018-08-12T02:01:35.385Z,23.74
2018-08-12T02:02:35.253Z,23.74
2018-08-12T02:03:35.293Z,23.72
2018-08-12T02:04:35.520Z,23.7
2018-08-12T02:05:35.546Z,23.72
2018-08-12T02:06:35.369Z,23.73
2018-08-12T02:07:35.573Z,23.71
2018-08-12T02:08:35.538Z,23.71
2018-08-12T02:09:35.500Z,23.72
2018-08-12T02:10:35.375Z,23.73
2018-08-12T02:11:35.323Z,23.72
2018-08-12T02:12:35.268Z,23.69
2018-08-12T02:13:35.698Z,23.71
2018-08-12T02:14:35.513Z,23.71
2018-08-12T02:15:35.625Z,23.72
2018-08-12T02:16:35.414Z,23.71
2018-08-12T02:17:35.532Z,23.7
2018-08-12T02:18:35.325Z,23.71
2018-08-12T02:19:35.481Z,23.7
2018-08-12T02:20:35.416Z,23.72
2018-08-12T02:21:35.304Z,23.71
2018-08-12T02:22:35.513Z,23.7
2018-08-12T02:23:35.431Z,23.69
2018-08-12T02:24:35.480Z,23.68
2018-08-12T02:25:35.737Z,23.69
2018-08-12T02:26:35.448Z,23.7
2018-08-12T02:27:35.432Z,23.68
2018-08-12T02:28:35.637Z,23.7
2018-08-12T02:29:35.343Z,23.68
2018-08-12T02:30:35.379Z,23.69
2018-08-12T02:31:35.534Z,23.69
2018-08-12T02:32:35.444Z,23.7
2018-08-12T02:33:35.505Z,23.68
2018-08-12T02:34:35.409Z,23.67
2018-08-12T02:35:35.443Z,23.68
2018-08-12T02:36:35.279Z,23.69
2018-08-12T02:37:35.493Z,23.71
2018-08-12T02:38:35.322Z,23.69
2018-08-12T02:39:35.344Z,23.68
2018-08-12T02:40:35.527Z,23.69
2018-08-12T02:41:35.519Z,23.7
2018-08-12T02:42:35.418Z,23.69
2018-08-12T02:43:35.556Z,23.71
2018-08-12T02:44:35.402Z,23.71
2018-08-12T02:45:35.308Z,23.7
2018-08-12T02:46:35.315Z,23.7
2018-08-12T02:47:35.302Z,23.68
2018-08-12T02:48:35.562Z,23.69
2018-08-12T02:49:35.367Z,23.68
2018-08-12T02:50:35.564Z,23.69
2018-08-12T02:51:35.384Z,23.68
2018-08-12T02:52:35.408Z,23.69
2018-08-12T02:53:35.368Z,23.68
2018-08-12T02:54:35.471Z,23.68
2018-08-12T02:55:35.415Z,23.69
2018-08-12T02:56:35.309Z,23.69
2018-08-12T02:57:35.396Z,23.67
2018-08-12T02:58:35.300Z,23.68
2018-08-12T02:59:35.511Z,23.67
2018-08-12T03:00:35.462Z,23.66
2018-08-12T03:01:35.454Z,23.66
2018-08-12T03:02:35.564Z,23.69
2018-08-12T03:03:35.618Z,23.65
2018-08-12T03:04:35.428Z,23.67
2018-08-12T03:05:35.185Z,23.66
2018-08-12T03:06:35.270Z,23.68
2018-08-12T03:07:35.539Z,23.68
2018-08-12T03:08:35.551Z,23.67
2018-08-12T03:09:35.375Z,23.67
2018-08-12T03:10:35.331Z,23.66
2018-08-12T03:11:35.461Z,23.67
2018-08-12T03:12:35.572Z,23.66
2018-08-12T03:13:35.298Z,23.7
2018-08-12T03:14:35.269Z,23.67
2018-08-12T03:15:35.553Z,23.68
2018-08-12T03:16:35.524Z,23.68
2018-08-12T03:17:35.555Z,23.68
2018-08-12T03:18:35.437Z,23.67
2018-08-12T03:19:35.509Z,23.67
2018-08-12T03:20:35.573Z,23.66
2018-08-12T03:21:35.410Z,23.66
2018-08-12T03:22:36.165Z,23.66
2018-08-12T03:23:35.338Z,23.66
2018-08-12T03:24:35.447Z,23.65
2018-08-12T03:25:35.386Z,23.66
2018-08-12T03:26:35.520Z,23.67
2018-08-12T03:27:35.261Z,23.65
2018-08-12T03:28:35.326Z,23.67
2018-08-12T03:29:35.480Z,23.65
2018-08-12T03:30:35.565Z,23.64
2018-08-12T03:31:35.471Z,23.65
2018-08-12T03:32:35.255Z,23.64
2018-08-12T03:33:35.322Z,23.62
2018-08-12T03:34:35.592Z,23.62
2018-08-12T03:35:35.404Z,23.66
2018-08-12T03:36:35.455Z,23.66
2018-08-12T03:37:35.360Z,23.65
2018-08-12T03:38:35.431Z,23.64
2018-08-12T03:39:35.458Z,23.64
2018-08-12T03:40:35.450Z,23.64
2018-08-12T03:41:35.366Z,23.65
2018-08-12T03:42:35.275Z,23.66
2018-08-12T03:43:35.419Z,23.64
2018-08-12T03:44:35.413Z,23.62
2018-08-12T03:45:35.823Z,23.62
2018-08-12T03:46:35.636Z,23.64
2018-08-12T03:47:35.518Z,23.64
2018-08-12T03:48:35.470Z,23.65
2018-08-12T03:49:35.456Z,23.64
2018-08-12T03:50:35.377Z,23.64
2018-08-12T03:51:35.382Z,23.66
2018-08-12T03:52:35.438Z,23.65
2018-08-12T03:53:35.395Z,23.65
2018-08-12T03:54:35.339Z,23.64
2018-08-12T03:55:35.275Z,23.64
2018-08-12T03:56:35.466Z,23.65
2018-08-12T03:57:35.375Z,23.65
2018-08-12T03:58:35.276Z,23.65
2018-08-12T03:59:35.562Z,23.64
2018-08-12T04:00:35.449Z,23.64
2018-08-12T04:01:35.314Z,23.62
2018-08-12T04:02:35.406Z,23.65
2018-08-12T04:03:35.478Z,23.64
2018-08-12T04:04:35.472Z,23.62
2018-08-12T04:05:35.476Z,23.62
2018-08-12T04:06:35.577Z,23.65
2018-08-12T04:07:35.392Z,23.64
2018-08-12T04:08:35.343Z,23.61
2018-08-12T04:09:35.331Z,23.62
2018-08-12T04:10:35.253Z,23.64
2018-08-12T04:11:35.442Z,23.61
2018-08-12T04:12:35.400Z,23.62
2018-08-12T04:13:35.518Z,23.61
2018-08-12T04:14:35.504Z,23.61
2018-08-12T04:15:35.421Z,23.59
2018-08-12T04:16:35.472Z,23.61
2018-08-12T04:17:35.562Z,23.58
2018-08-12T04:18:35.471Z,23.6
2018-08-12T04:19:35.259Z,23.59
2018-08-12T04:20:35.403Z,23.59
2018-08-12T04:21:35.255Z,23.59
2018-08-12T04:22:35.236Z,23.59
2018-08-12T04:23:35.435Z,23.62
2018-08-12T04:24:35.299Z,23.61
2018-08-12T04:25:35.341Z,23.6
2018-08-12T04:26:35.448Z,23.58
2018-08-12T04:27:35.411Z,23.6
2018-08-12T04:28:35.436Z,23.59
2018-08-12T04:29:35.590Z,23.59
2018-08-12T04:30:35.330Z,23.6
2018-08-12T04:31:35.430Z,23.6
2018-08-12T04:32:35.284Z,23.58
2018-08-12T04:33:35.296Z,23.58
2018-08-12T04:34:35.403Z,23.6
2018-08-12T04:35:35.368Z,23.6
2018-08-12T04:36:35.361Z,23.59
2018-08-12T04:37:35.341Z,23.61
2018-08-12T04:38:35.491Z,23.57
2018-08-12T04:39:35.363Z,23.58
2018-08-12T04:40:35.292Z,23.5
2018-08-12T04:41:35.493Z,22.85
2018-08-12T04:42:35.520Z,22.56
2018-08-12T04:43:35.248Z,22.14
2018-08-12T04:44:35.483Z,21.96
2018-08-12T04:45:35.460Z,21.7
2018-08-12T04:46:35.516Z,21.69
2018-08-12T04:47:35.679Z,21.49
2018-08-12T04:48:35.220Z,21.3
2018-08-12T04:49:35.441Z,21.3
2018-08-12T04:50:35.399Z,21.14
2018-08-12T04:51:35.436Z,20.91
2018-08-12T04:52:35.664Z,20.78
2018-08-12T04:53:35.250Z,20.79
2018-08-12T04:54:35.525Z,20.84
2018-08-12T04:55:35.555Z,20.71
2018-08-12T04:56:35.388Z,20.57
2018-08-12T04:57:35.468Z,20.46
2018-08-12T04:58:35.496Z,20.42
2018-08-12T04:59:35.384Z,20.45
2018-08-12T05:00:35.343Z,20.32
2018-08-12T05:01:35.455Z,20.2
2018-08-12T05:02:35.217Z,20.36
2018-08-12T05:03:35.347Z,20.27
2018-08-12T05:04:35.529Z,20.03
2018-08-12T05:05:35.394Z,20.11
2018-08-12T05:06:35.208Z,20.04
2018-08-12T05:07:35.376Z,20.13
2018-08-12T05:08:35.438Z,20.09
2018-08-12T05:09:35.319Z,20.04
2018-08-12T05:10:35.406Z,20.09
2018-08-12T05:11:35.658Z,20.12
2018-08-12T05:12:35.381Z,20.1
2018-08-12T05:13:35.292Z,20
2018-08-12T05:14:35.316Z,19.97
2018-08-12T05:15:35.331Z,19.89
2018-08-12T05:16:35.419Z,20.06
2018-08-12T05:17:35.246Z,19.97
2018-08-12T05:18:35.437Z,20.02
2018-08-12T05:19:35.274Z,20.01
2018-08-12T05:20:35.329Z,19.97
2018-08-12T05:21:35.348Z,20.01
2018-08-12T05:22:35.327Z,19.97
2018-08-12T05:23:35.379Z,19.95
2018-08-12T05:24:35.253Z,19.92
2018-08-12T05:25:35.518Z,19.89
2018-08-12T05:26:35.400Z,19.96
2018-08-12T05:27:35.267Z,19.9
2018-08-12T05:28:35.514Z,19.99
2018-08-12T05:29:35.200Z,19.99
2018-08-12T05:30:35.369Z,20.01
2018-08-12T05:31:35.405Z,20.01
2018-08-12T05:32:35.399Z,20.05
2018-08-12T05:33:35.234Z,20.02
2018-08-12T05:34:35.283Z,20.1
2018-08-12T05:35:35.540Z,20.04
2018-08-12T05:36:35.404Z,20.04
2018-08-12T05:37:35.430Z,19.99
2018-08-12T05:38:35.442Z,19.97
2018-08-12T05:39:35.265Z,19.96
2018-08-12T05:40:35.406Z,19.96
2018-08-12T05:41:35.384Z,20.06
2018-08-12T05:42:35.215Z,20.05
2018-08-12T05:43:35.442Z,20.15
2018-08-12T05:44:35.472Z,20.11
2018-08-12T05:45:35.403Z,20.1
2018-08-12T05:46:35.324Z,20.1
2018-08-12T05:47:35.425Z,19.99
2018-08-12T05:48:35.322Z,20.12
2018-08-12T05:49:35.348Z,20.01
2018-08-12T05:50:35.225Z,19.96
2018-08-12T05:51:36.273Z,20
2018-08-12T05:52:35.365Z,20.06
2018-08-12T05:53:35.299Z,20.1
2018-08-12T05:54:35.337Z,20.04
2018-08-12T05:55:35.328Z,20.05
2018-08-12T05:56:35.551Z,19.97
2018-08-12T05:57:35.352Z,20.01
2018-08-12T05:58:35.314Z,20.11
2018-08-12T05:59:35.478Z,20
2018-08-12T06:00:35.306Z,20.14
2018-08-12T06:01:35.423Z,20.15
2018-08-12T06:02:35.782Z,20.18
2018-08-12T06:03:35.553Z,20.14
2018-08-12T06:04:35.290Z,20.2
2018-08-12T06:05:36.373Z,20.12
2018-08-12T06:06:35.481Z,20.16
2018-08-12T06:07:35.352Z,20.24
2018-08-12T06:08:35.384Z,20.19
2018-08-12T06:09:35.346Z,20.19
2018-08-12T06:10:35.368Z,20.22
2018-08-12T06:11:35.356Z,20.3
2018-08-12T06:12:35.329Z,20.35
2018-08-12T06:13:35.411Z,20.37
2018-08-12T06:14:35.551Z,20.43
2018-08-12T06:15:35.609Z,20.4
2018-08-12T06:16:35.711Z,20.42
2018-08-12T06:17:35.380Z,20.46
2018-08-12T06:18:35.383Z,20.48
2018-08-12T06:19:35.473Z,20.5
2018-08-12T06:20:35.329Z,20.49
2018-08-12T06:21:35.134Z,20.55
2018-08-12T06:22:35.500Z,20.54
2018-08-12T06:23:35.460Z,20.55
2018-08-12T06:24:35.572Z,20.59
2018-08-12T06:25:35.371Z,20.6
2018-08-12T06:26:35.281Z,20.57
2018-08-12T06:27:35.261Z,20.6
2018-08-12T06:28:35.470Z,20.56
2018-08-12T06:29:35.273Z,20.64
2018-08-12T06:30:35.152Z,20.61
2018-08-12T06:31:35.920Z,20.61
2018-08-12T06:32:35.379Z,20.66
2018-08-12T06:33:35.277Z,20.64
2018-08-12T06:34:35.331Z,20.62
2018-08-12T06:35:35.443Z,20.6
2018-08-12T06:36:35.230Z,20.58
2018-08-12T06:37:35.406Z,20.65
2018-08-12T06:38:35.256Z,20.66
2018-08-12T06:39:35.261Z,20.74
2018-08-12T06:40:35.464Z,20.7
2018-08-12T06:41:35.331Z,20.7
2018-08-12T06:42:35.342Z,20.71
2018-08-12T06:43:35.490Z,20.75
2018-08-12T06:44:35.324Z,20.75
2018-08-12T06:45:35.569Z,20.8
2018-08-12T06:46:35.296Z,20.88
2018-08-12T06:47:35.369Z,20.86
2018-08-12T06:48:35.223Z,20.88
2018-08-12T06:49:35.388Z,20.9
2018-08-12T06:50:35.220Z,20.89
2018-08-12T06:51:35.424Z,20.9
2018-08-12T06:52:35.350Z,20.91
2018-08-12T06:53:35.499Z,20.93
2018-08-12T06:54:35.308Z,20.96
2018-08-12T06:55:35.262Z,20.95
2018-08-12T06:56:35.294Z,21.02
2018-08-12T06:57:36.125Z,21.02
2018-08-12T06:58:35.247Z,21.02
2018-08-12T06:59:35.193Z,21.04
2018-08-12T07:00:35.905Z,20.98
2018-08-12T07:01:35.369Z,21.02
2018-08-12T07:02:35.445Z,21.07
2018-08-12T07:03:35.454Z,21.02
2018-08-12T07:04:35.494Z,21.01
2018-08-12T07:05:35.404Z,20.99
2018-08-12T07:06:35.226Z,21.02
2018-08-12T07:07:35.497Z,21.06
2018-08-12T07:08:35.470Z,21.06
2018-08-12T07:09:35.422Z,21.05
2018-08-12T07:10:35.473Z,21.1
2018-08-12T07:11:35.312Z,21.1
2018-08-12T07:12:35.319Z,21.09
2018-08-12T07:13:35.231Z,21.1
2018-08-12T07:14:35.396Z,21.1
2018-08-12T07:15:35.350Z,21.15
2018-08-12T07:16:35.199Z,21.16
2018-08-12T07:17:35.488Z,21.13
2018-08-12T07:18:35.475Z,21.1
2018-08-12T07:19:35.209Z,21.13
2018-08-12T07:20:35.499Z,21.11
2018-08-12T07:21:35.234Z,21.18
2018-08-12T07:22:35.421Z,21.13
2018-08-12T07:23:35.258Z,21.14
2018-08-12T07:24:35.277Z,21.13
2018-08-12T07:25:35.260Z,21.17
2018-08-12T07:26:35.201Z,21.15
2018-08-12T07:27:35.307Z,21.14
2018-08-12T07:28:35.301Z,21.15
2018-08-12T07:29:35.305Z,21.17
2018-08-12T07:30:35.352Z,21.18
2018-08-12T07:31:35.361Z,21.21
2018-08-12T07:32:35.223Z,21.23
2018-08-12T07:33:35.247Z,21.24
2018-08-12T07:34:35.366Z,21.23
2018-08-12T07:35:35.212Z,21.28
2018-08-12T07:36:35.207Z,21.29
2018-08-12T07:37:35.194Z,21.31
2018-08-12T07:38:35.746Z,21.33
2018-08-12T07:39:35.205Z,21.36
2018-08-12T07:40:35.418Z,21.37
2018-08-12T07:41:35.225Z,21.39
2018-08-12T07:42:35.217Z,21.39
2018-08-12T07:43:35.319Z,21.42
2018-08-12T07:44:35.216Z,21.4
2018-08-12T07:45:35.427Z,21.44
2018-08-12T07:46:35.312Z,21.48
2018-08-12T07:47:35.446Z,21.46
2018-08-12T07:48:35.248Z,21.49
2018-08-12T07:49:35.338Z,21.49
2018-08-12T07:50:35.163Z,21.49
2018-08-12T07:51:35.139Z,21.49
2018-08-12T07:52:35.357Z,21.5
2018-08-12T07:53:35.499Z,21.49
2018-08-12T07:54:35.232Z,21.51
2018-08-12T07:55:35.911Z,21.53
2018-08-12T07:56:35.275Z,21.55
2018-08-12T07:57:35.211Z,21.53
2018-08-12T07:58:35.430Z,21.54
2018-08-12T07:59:35.187Z,21.54
2018-08-12T08:00:35.242Z,21.55
2018-08-12T08:01:35.191Z,21.58
2018-08-12T08:02:35.331Z,21.58
2018-08-12T08:03:35.345Z,21.57
2018-08-12T08:04:35.221Z,21.57
2018-08-12T08:05:35.432Z,21.6
2018-08-12T08:06:35.302Z,21.6
2018-08-12T08:07:35.260Z,21.63
2018-08-12T08:08:35.442Z,21.61
2018-08-12T08:09:35.170Z,21.63
2018-08-12T08:10:35.417Z,21.63
2018-08-12T08:11:35.302Z,21.63
2018-08-12T08:12:35.629Z,21.66
2018-08-12T08:13:35.172Z,21.65
2018-08-12T08:14:35.333Z,21.66
2018-08-12T08:15:35.310Z,21.66
2018-08-12T08:16:35.191Z,21.68
2018-08-12T08:17:35.556Z,21.66
2018-08-12T08:18:35.355Z,21.7
2018-08-12T08:19:35.377Z,21.69
2018-08-12T08:20:35.250Z,21.7
2018-08-12T08:21:35.321Z,21.73
2018-08-12T08:22:35.789Z,21.72
2018-08-12T08:23:35.356Z,21.74
2018-08-12T08:24:35.573Z,21.74
2018-08-12T08:25:36.658Z,21.74
2018-08-12T08:26:35.389Z,21.75
2018-08-12T08:27:35.285Z,21.77
2018-08-12T08:28:35.400Z,21.75
2018-08-12T08:29:35.352Z,21.76
2018-08-12T08:30:35.162Z,21.78
2018-08-12T08:31:36.096Z,21.79
2018-08-12T08:32:35.296Z,21.79
2018-08-12T08:33:35.385Z,21.81
2018-08-12T08:34:35.374Z,21.85
2018-08-12T08:35:35.251Z,21.89
2018-08-12T08:36:35.230Z,21.88
2018-08-12T08:37:35.284Z,21.9
2018-08-12T08:38:35.345Z,21.9
2018-08-12T08:39:35.228Z,21.93
2018-08-12T08:40:35.277Z,21.95
2018-08-12T08:41:35.421Z,21.98
2018-08-12T08:42:35.410Z,22.01
2018-08-12T08:43:35.333Z,22.02
2018-08-12T08:44:35.342Z,21.99
2018-08-12T08:45:35.172Z,22.08
2018-08-12T08:46:35.219Z,22.08
2018-08-12T08:47:35.526Z,22.11
2018-08-12T08:48:35.351Z,22.14
2018-08-12T08:49:35.267Z,22.1
2018-08-12T08:50:35.381Z,22.12
2018-08-12T08:51:35.193Z,22.13
2018-08-12T08:52:35.311Z,22.14
2018-08-12T08:53:35.415Z,22.14
2018-08-12T08:54:35.219Z,22.13
2018-08-12T08:55:35.690Z,22.16
2018-08-12T08:56:35.408Z,22.16
2018-08-12T08:57:35.294Z,22.19
2018-08-12T08:58:35.306Z,22.18
2018-08-12T08:59:35.384Z,22.19
2018-08-12T09:00:35.404Z,22.2
2018-08-12T09:01:35.352Z,22.2
2018-08-12T09:02:35.545Z,22.19
2018-08-12T09:03:35.131Z,22.22
2018-08-12T09:04:35.357Z,22.23
2018-08-12T09:05:35.383Z,22.23
2018-08-12T09:06:35.382Z,22.23
2018-08-12T09:07:35.383Z,22.25
2018-08-12T09:08:37.051Z,22.25
2018-08-12T09:09:35.368Z,22.27
2018-08-12T09:10:35.204Z,22.31
2018-08-12T09:11:35.410Z,22.31
2018-08-12T09:12:35.160Z,22.25
2018-08-12T09:13:35.277Z,22.28
2018-08-12T09:14:35.252Z,22.27
2018-08-12T09:15:35.305Z,22.26
2018-08-12T09:16:35.214Z,22.27
2018-08-12T09:17:35.400Z,22.27
2018-08-12T09:18:35.191Z,22.24
2018-08-12T09:19:35.313Z,22.26
2018-08-12T09:20:35.146Z,22.26
2018-08-12T09:21:35.146Z,22.25
2018-08-12T09:22:35.257Z,22.28
2018-08-12T09:23:35.396Z,22.26
2018-08-12T09:24:35.327Z,22.28
2018-08-12T09:25:35.251Z,22.33
2018-08-12T09:26:35.265Z,22.34
2018-08-12T09:27:35.376Z,22.34
2018-08-12T09:28:35.460Z,22.35
2018-08-12T09:29:35.382Z,22.35
2018-08-12T09:30:35.191Z,22.38
2018-08-12T09:31:35.205Z,22.38
2018-08-12T09:32:35.436Z,22.39
2018-08-12T09:33:35.394Z,22.41
2018-08-12T09:34:35.331Z,22.43
2018-08-12T09:35:35.424Z,22.44
2018-08-12T09:36:35.374Z,22.44
2018-08-12T09:37:35.148Z,22.46
2018-08-12T09:38:35.453Z,22.47
2018-08-12T09:39:35.189Z,22.48
2018-08-12T09:40:35.284Z,22.48
2018-08-12T09:41:35.202Z,22.49
2018-08-12T09:42:35.244Z,22.48
2018-08-12T09:43:35.568Z,22.49
2018-08-12T09:44:35.454Z,22.49
2018-08-12T09:45:35.478Z,22.51
2018-08-12T09:46:35.274Z,22.52
2018-08-12T09:47:35.443Z,22.51
2018-08-12T09:48:35.140Z,22.51
2018-08-12T09:49:35.392Z,22.52
2018-08-12T09:50:35.636Z,22.54
2018-08-12T09:51:36.416Z,22.54
2018-08-12T09:52:35.316Z,22.55
2018-08-12T09:53:35.420Z,22.55
2018-08-12T09:54:35.423Z,22.57
2018-08-12T09:55:35.196Z,22.58
2018-08-12T09:56:35.140Z,22.58
2018-08-12T09:57:35.190Z,22.58
2018-08-12T09:58:35.471Z,22.62
2018-08-12T09:59:35.449Z,22.62
2018-08-12T10:00:35.978Z,22.63
2018-08-12T10:01:35.434Z,22.62
2018-08-12T10:02:35.330Z,22.62
2018-08-12T10:03:35.482Z,22.6
2018-08-12T10:04:35.293Z,22.58
2018-08-12T10:05:35.163Z,22.56
2018-08-12T10:06:35.158Z,22.56
2018-08-12T10:07:35.919Z,22.53
2018-08-12T10:08:35.208Z,22.54
2018-08-12T10:09:35.360Z,22.53
2018-08-12T10:10:35.470Z,22.52
2018-08-12T10:11:35.302Z,22.51
2018-08-12T10:12:35.297Z,22.51
2018-08-12T10:13:35.329Z,22.52
2018-08-12T10:14:35.307Z,22.51
2018-08-12T10:15:35.431Z,22.5
2018-08-12T10:16:35.542Z,22.48
2018-08-12T10:17:35.414Z,22.51
2018-08-12T10:18:35.456Z,22.49
2018-08-12T10:19:35.379Z,22.5
2018-08-12T10:20:35.346Z,22.49
2018-08-12T10:21:35.680Z,22.49
2018-08-12T10:22:35.276Z,22.5
2018-08-12T10:23:35.478Z,22.49
2018-08-12T10:24:35.320Z,22.48
2018-08-12T10:25:35.319Z,22.49
2018-08-12T10:26:35.309Z,22.48
2018-08-12T10:27:35.475Z,22.48
2018-08-12T10:28:35.450Z,22.48
2018-08-12T10:29:35.216Z,22.48
2018-08-12T10:30:35.423Z,22.48
2018-08-12T10:31:35.351Z,22.47
2018-08-12T10:32:35.345Z,22.48
2018-08-12T10:33:35.226Z,22.48
2018-08-12T10:34:35.218Z,22.48
2018-08-12T10:35:35.409Z,22.46
2018-08-12T10:36:35.331Z,22.48
2018-08-12T10:37:35.217Z,22.48
2018-08-12T10:38:35.244Z,22.49
2018-08-12T10:39:35.206Z,22.47
2018-08-12T10:40:35.212Z,22.48
2018-08-12T10:41:35.295Z,22.46
2018-08-12T10:42:35.364Z,22.48
2018-08-12T10:43:35.191Z,22.46
2018-08-12T10:44:35.104Z,22.46
2018-08-12T10:45:35.245Z,22.49
2018-08-12T10:46:35.310Z,22.49
2018-08-12T10:47:35.222Z,22.48
2018-08-12T10:48:35.324Z,22.48
2018-08-12T10:49:35.377Z,22.48
2018-08-12T10:50:35.290Z,22.48
2018-08-12T10:51:35.358Z,22.48
2018-08-12T10:52:35.106Z,22.47
2018-08-12T10:53:35.370Z,22.44
2018-08-12T10:54:35.345Z,22.48
2018-08-12T10:55:35.374Z,22.48
2018-08-12T10:56:35.428Z,22.47
2018-08-12T10:57:35.494Z,22.48
2018-08-12T10:58:35.596Z,22.48
2018-08-12T10:59:35.370Z,22.48
2018-08-12T11:00:35.401Z,22.49
2018-08-12T11:01:35.432Z,22.48
2018-08-12T11:02:35.169Z,22.48
2018-08-12T11:03:35.527Z,22.48
2018-08-12T11:04:35.151Z,22.48
2018-08-12T11:05:35.392Z,22.48
2018-08-12T11:06:35.296Z,22.49
2018-08-12T11:07:35.787Z,22.48
2018-08-12T11:08:35.458Z,22.48
2018-08-12T11:09:35.359Z,22.49
2018-08-12T11:10:35.271Z,22.48
2018-08-12T11:11:35.266Z,22.5
2018-08-12T11:12:35.472Z,22.5
2018-08-12T11:13:35.589Z,22.5
2018-08-12T11:14:35.359Z,22.49
2018-08-12T11:15:35.609Z,22.51
2018-08-12T11:16:35.377Z,22.5
2018-08-12T11:17:35.305Z,22.51
2018-08-12T11:18:35.414Z,22.49
2018-08-12T11:19:35.576Z,22.5
2018-08-12T11:20:35.844Z,22.5
2018-08-12T11:21:35.409Z,22.49
2018-08-12T11:22:35.478Z,22.51
2018-08-12T11:23:35.332Z,22.51
2018-08-12T11:24:35.469Z,22.51
2018-08-12T11:25:35.443Z,22.51
2018-08-12T11:26:35.415Z,22.5
2018-08-12T11:27:35.453Z,22.51
2018-08-12T11:28:35.746Z,22.51
2018-08-12T11:29:35.318Z,22.52
2018-08-12T11:30:35.397Z,22.51
2018-08-12T11:31:35.177Z,22.53
2018-08-12T11:32:35.997Z,22.53
2018-08-12T11:33:35.323Z,22.51
2018-08-12T11:34:35.350Z,22.53
2018-08-12T11:35:35.385Z,22.53
2018-08-12T11:36:35.292Z,22.51
2018-08-12T11:37:35.309Z,22.52
2018-08-12T11:38:35.333Z,22.52
2018-08-12T11:39:35.247Z,22.51
2018-08-12T11:40:35.291Z,22.52
2018-08-12T11:41:35.353Z,22.51
2018-08-12T11:42:35.438Z,22.53
2018-08-12T11:43:35.289Z,22.54
2018-08-12T11:44:35.330Z,22.52
2018-08-12T11:45:35.251Z,22.55
2018-08-12T11:46:35.286Z,22.54
2018-08-12T11:47:36.059Z,22.53
2018-08-12T11:48:35.361Z,22.56
2018-08-12T11:49:35.225Z,22.56
2018-08-12T11:50:35.347Z,22.54
2018-08-12T11:51:35.374Z,22.54
2018-08-12T11:52:35.375Z,22.56
2018-08-12T11:53:35.394Z,22.55
2018-08-12T11:54:35.425Z,22.55
2018-08-12T11:55:35.382Z,22.54
2018-08-12T11:56:35.202Z,22.55
2018-08-12T11:57:35.390Z,22.55
2018-08-12T11:58:35.156Z,22.56
2018-08-12T11:59:35.375Z,22.53
2018-08-12T12:00:35.360Z,22.56
2018-08-12T12:01:35.335Z,22.56
2018-08-12T12:02:35.206Z,22.55
2018-08-12T12:03:35.340Z,22.55
2018-08-12T12:04:35.743Z,22.56
2018-08-12T12:05:35.271Z,22.56
2018-08-12T12:06:35.284Z,22.56
2018-08-12T12:07:35.151Z,22.57
2018-08-12T12:08:35.400Z,22.57
2018-08-12T12:09:35.326Z,22.55
2018-08-12T12:10:35.321Z,22.57
2018-08-12T12:11:35.140Z,22.56
2018-08-12T12:12:35.372Z,22.56
2018-08-12T12:13:35.536Z,22.56
2018-08-12T12:14:35.464Z,22.57
2018-08-12T12:15:35.385Z,22.56
2018-08-12T12:16:35.130Z,22.56
2018-08-12T12:17:35.230Z,22.56
2018-08-12T12:18:35.352Z,22.56
2018-08-12T12:19:35.233Z,22.57
2018-08-12T12:20:35.923Z,22.56
2018-08-12T12:21:35.362Z,22.57
2018-08-12T12:22:35.235Z,22.57
2018-08-12T12:23:35.234Z,22.57
2018-08-12T12:24:35.246Z,22.6
2018-08-12T12:25:35.280Z,22.6
2018-08-12T12:26:35.161Z,22.57
2018-08-12T12:27:35.598Z,22.6
2018-08-12T12:28:35.590Z,22.6
2018-08-12T12:29:35.249Z,22.62
2018-08-12T12:30:35.324Z,22.63
2018-08-12T12:31:35.321Z,22.64
2018-08-12T12:32:35.262Z,22.65
2018-08-12T12:33:35.595Z,22.68
2018-08-12T12:34:35.293Z,22.66
2018-08-12T12:35:35.879Z,22.66
2018-08-12T12:36:35.097Z,22.68
2018-08-12T12:37:35.462Z,22.7
2018-08-12T12:38:35.284Z,22.7
2018-08-12T12:39:36.756Z,22.71
2018-08-12T12:40:35.189Z,22.71
2018-08-12T12:41:35.226Z,22.75
2018-08-12T12:42:35.430Z,22.73
2018-08-12T12:43:35.207Z,22.72
2018-08-12T12:44:35.253Z,22.75
2018-08-12T12:45:35.383Z,22.78
2018-08-12T12:46:35.152Z,22.77
2018-08-12T12:47:35.310Z,22.79
2018-08-12T12:48:35.272Z,22.8
2018-08-12T12:49:35.644Z,22.8
2018-08-12T12:50:35.713Z,22.81
2018-08-12T12:51:35.446Z,22.83
2018-08-12T12:52:35.267Z,22.84
2018-08-12T12:53:35.421Z,22.83
2018-08-12T12:54:35.329Z,22.84
2018-08-12T12:55:35.179Z,22.84